TAF KFAT
KFAT 280607Z 2806/2906 VRB03KT 6SM HZ SKC TEMPO 2812/2816 4SM HZ=
METAR KFAT
KFAT 280653Z 08003KT 6SM HZ FEW200 09/06 A3022 RMK AO2 SLP231 T00940061
KFAT 280553Z 09004KT 6SM HZ FEW200 10/06 A3021 RMK AO2 SLP229 T01000061 10189 20094 53012 ?
KFAT 280453Z 08003KT 6SM HZ SCT200 11/06 A3020 RMK AO2 SLP225 T01060061 ?
KFAT 280353Z 08003KT 6SM HZ SCT200 12/06 A3019 RMK AO2 SLP222 T01170056 ?
KFAT 280253Z 00000KT 7SM SCT200 13/06 A3017 RMK AO2 SLP218 T01280056 53015 ?
WC KFAT
WS KFAT
WV KFAT